sensor_id;sensor_type;location;lat;lon;timestamp;pressure;altitude;pressure_sealevel;temperature;humidity
63395;BME280;49531;-34.520;150.798;2023-08-01T00:02:00;101637.50;;;20.42;35.73
63395;BME280;49531;-34.520;150.798;2023-08-01T00:04:27;101645.75;;;20.47;35.57
63395;BME280;49531;-34.520;150.798;2023-08-01T00:06:55;101640.22;;;20.53;35.44
63395;BME280;49531;-34.520;150.798;2023-08-01T00:09:22;101648.00;;;20.61;35.39
63395;BME280;49531;-34.520;150.798;2023-08-01T00:11:49;101648.00;;;20.61;35.29
63395;BME280;49531;-34.520;150.798;2023-08-01T00:14:17;101652.00;;;20.71;35.50
63395;BME280;49531;-34.520;150.798;2023-08-01T00:16:46;101649.88;;;20.73;35.58
63395;BME280;49531;-34.520;150.798;2023-08-01T00:19:14;101645.13;;;20.80;35.48
63395;BME280;49531;-34.520;150.798;2023-08-01T00:21:41;101650.16;;;20.88;35.47
63395;BME280;49531;-34.520;150.798;2023-08-01T00:24:08;101651.09;;;20.93;35.56
63395;BME280;49531;-34.520;150.798;2023-08-01T00:26:35;101660.19;;;20.99;35.51
63395;BME280;49531;-34.520;150.798;2023-08-01T00:29:02;101653.22;;;21.03;35.36
63395;BME280;49531;-34.520;150.798;2023-08-01T00:31:29;101655.44;;;21.06;35.38
63395;BME280;49531;-34.520;150.798;2023-08-01T00:33:56;101655.31;;;21.13;35.13
63395;BME280;49531;-34.520;150.798;2023-08-01T00:36:23;101668.16;;;21.17;35.21
63395;BME280;49531;-34.520;150.798;2023-08-01T00:38:51;101666.63;;;21.21;35.17
63395;BME280;49531;-34.520;150.798;2023-08-01T00:41:18;101671.34;;;21.26;35.08
63395;BME280;49531;-34.520;150.798;2023-08-01T00:43:45;101665.56;;;21.22;35.22
63395;BME280;49531;-34.520;150.798;2023-08-01T00:46:13;101678.75;;;21.30;35.10
63395;BME280;49531;-34.520;150.798;2023-08-01T00:48:40;101677.69;;;21.32;35.06
63395;BME280;49531;-34.520;150.798;2023-08-01T00:51:09;101686.53;;;21.39;35.08
63395;BME280;49531;-34.520;150.798;2023-08-01T00:53:38;101689.59;;;21.42;35.02
63395;BME280;49531;-34.520;150.798;2023-08-01T00:56:06;101692.66;;;21.46;34.98
63395;BME280;49531;-34.520;150.798;2023-08-01T00:58:33;101684.59;;;21.51;35.12
63395;BME280;49531;-34.520;150.798;2023-08-01T01:01:00;101683.34;;;21.42;34.89
63395;BME280;49531;-34.520;150.798;2023-08-01T01:03:30;101686.28;;;21.40;34.68
63395;BME280;49531;-34.520;150.798;2023-08-01T01:06:13;101676.34;;;21.46;34.60
63395;BME280;49531;-34.520;150.798;2023-08-01T01:08:42;101679.75;;;21.53;34.60
63395;BME280;49531;-34.520;150.798;2023-08-01T01:11:09;101676.31;;;21.57;34.50
63395;BME280;49531;-34.520;150.798;2023-08-01T01:13:36;101682.88;;;21.61;34.77
63395;BME280;49531;-34.520;150.798;2023-08-01T01:16:03;101691.38;;;21.65;34.49
63395;BME280;49531;-34.520;150.798;2023-08-01T01:18:30;101684.53;;;21.62;34.57
63395;BME280;49531;-34.520;150.798;2023-08-01T01:20:57;101685.19;;;21.70;34.56
63395;BME280;49531;-34.520;150.798;2023-08-01T01:23:25;101678.44;;;21.72;34.61
63395;BME280;49531;-34.520;150.798;2023-08-01T01:25:54;101680.09;;;21.73;34.18
63395;BME280;49531;-34.520;150.798;2023-08-01T01:28:23;101690.25;;;21.78;34.26
63395;BME280;49531;-34.520;150.798;2023-08-01T01:30:52;101689.41;;;21.77;34.17
63395;BME280;49531;-34.520;150.798;2023-08-01T01:33:19;101682.19;;;21.83;34.30
63395;BME280;49531;-34.520;150.798;2023-08-01T01:35:47;101681.69;;;21.86;34.21
63395;BME280;49531;-34.520;150.798;2023-08-01T01:38:14;101676.81;;;21.88;34.23
63395;BME280;49531;-34.520;150.798;2023-08-01T01:40:41;101671.13;;;21.89;34.25
63395;BME280;49531;-34.520;150.798;2023-08-01T01:43:09;101661.91;;;21.90;34.15
63395;BME280;49531;-34.520;150.798;2023-08-01T01:45:36;101670.41;;;21.94;34.05
63395;BME280;49531;-34.520;150.798;2023-08-01T01:48:03;101665.78;;;21.94;33.91
63395;BME280;49531;-34.520;150.798;2023-08-01T01:50:30;101674.53;;;21.96;34.15
63395;BME280;49531;-34.520;150.798;2023-08-01T01:52:57;101673.94;;;21.94;33.51
63395;BME280;49531;-34.520;150.798;2023-08-01T01:55:24;101666.78;;;21.88;34.03
63395;BME280;49531;-34.520;150.798;2023-08-01T01:57:51;101668.25;;;21.79;34.66
63395;BME280;49531;-34.520;150.798;2023-08-01T02:00:18;101672.13;;;21.83;34.99
63395;BME280;49531;-34.520;150.798;2023-08-01T02:02:45;101676.72;;;21.83;35.23
63395;BME280;49531;-34.520;150.798;2023-08-01T02:05:12;101667.75;;;21.82;35.38
63395;BME280;49531;-34.520;150.798;2023-08-01T02:07:39;101657.28;;;21.74;35.39
63395;BME280;49531;-34.520;150.798;2023-08-01T02:10:07;101649.13;;;21.74;35.31
63395;BME280;49531;-34.520;150.798;2023-08-01T02:12:34;101649.63;;;21.88;35.33
63395;BME280;49531;-34.520;150.798;2023-08-01T02:15:02;101637.41;;;21.74;35.04
63395;BME280;49531;-34.520;150.798;2023-08-01T02:17:30;101648.63;;;21.77;35.24
63395;BME280;49531;-34.520;150.798;2023-08-01T02:19:57;101651.44;;;21.82;35.24
63395;BME280;49531;-34.520;150.798;2023-08-01T02:22:25;101637.09;;;21.87;35.21
63395;BME280;49531;-34.520;150.798;2023-08-01T02:24:53;101632.56;;;21.92;35.07
63395;BME280;49531;-34.520;150.798;2023-08-01T02:27:20;101638.84;;;21.93;34.95
63395;BME280;49531;-34.520;150.798;2023-08-01T02:29:49;101633.63;;;21.91;34.65
63395;BME280;49531;-34.520;150.798;2023-08-01T02:32:17;101638.66;;;21.83;34.71
63395;BME280;49531;-34.520;150.798;2023-08-01T02:34:44;101632.41;;;21.82;34.20
63395;BME280;49531;-34.520;150.798;2023-08-01T02:37:11;101621.84;;;21.86;33.86
63395;BME280;49531;-34.520;150.798;2023-08-01T02:39:38;101630.09;;;21.91;34.05
63395;BME280;49531;-34.520;150.798;2023-08-01T02:42:05;101620.44;;;21.83;33.97
63395;BME280;49531;-34.520;150.798;2023-08-01T02:44:32;101620.88;;;21.92;34.46
63395;BME280;49531;-34.520;150.798;2023-08-01T02:47:00;101626.53;;;21.90;34.23
63395;BME280;49531;-34.520;150.798;2023-08-01T02:49:27;101623.34;;;21.93;34.40
63395;BME280;49531;-34.520;150.798;2023-08-01T02:51:54;101616.75;;;21.89;34.01
63395;BME280;49531;-34.520;150.798;2023-08-01T02:54:21;101617.66;;;21.95;34.38
63395;BME280;49531;-34.520;150.798;2023-08-01T02:56:48;101617.66;;;21.95;34.59
63395;BME280;49531;-34.520;150.798;2023-08-01T02:59:15;101611.88;;;21.91;34.80
63395;BME280;49531;-34.520;150.798;2023-08-01T03:01:44;101604.03;;;21.95;34.70
63395;BME280;49531;-34.520;150.798;2023-08-01T03:04:11;101603.22;;;21.94;34.83
63395;BME280;49531;-34.520;150.798;2023-08-01T03:06:38;101603.38;;;22.05;34.82
63395;BME280;49531;-34.520;150.798;2023-08-01T03:09:05;101593.50;;;21.99;34.99
63395;BME280;49531;-34.520;150.798;2023-08-01T03:11:35;101606.00;;;22.00;35.19
63395;BME280;49531;-34.520;150.798;2023-08-01T03:14:03;101604.53;;;22.09;33.72
63395;BME280;49531;-34.520;150.798;2023-08-01T03:16:31;101604.53;;;22.09;33.69
63395;BME280;49531;-34.520;150.798;2023-08-01T03:18:59;101597.19;;;22.09;33.66
63395;BME280;49531;-34.520;150.798;2023-08-01T03:21:32;101595.72;;;22.02;33.73
63395;BME280;49531;-34.520;150.798;2023-08-01T03:24:00;101601.16;;;22.02;34.19
63395;BME280;49531;-34.520;150.798;2023-08-01T03:26:28;101602.56;;;22.04;34.21
63395;BME280;49531;-34.520;150.798;2023-08-01T03:28:56;101599.00;;;22.04;34.48
63395;BME280;49531;-34.520;150.798;2023-08-01T03:31:23;101603.72;;;22.08;34.38
63395;BME280;49531;-34.520;150.798;2023-08-01T03:33:50;101595.81;;;22.07;34.23
63395;BME280;49531;-34.520;150.798;2023-08-01T03:36:17;101600.75;;;22.10;33.59
63395;BME280;49531;-34.520;150.798;2023-08-01T03:38:44;101606.34;;;22.03;33.98
63395;BME280;49531;-34.520;150.798;2023-08-01T03:41:14;101603.38;;;22.05;33.47
63395;BME280;49531;-34.520;150.798;2023-08-01T03:43:41;101612.03;;;22.18;33.53
63395;BME280;49531;-34.520;150.798;2023-08-01T03:46:08;101599.25;;;22.19;33.53
63395;BME280;49531;-34.520;150.798;2023-08-01T03:48:36;101604.13;;;22.17;33.58
63395;BME280;49531;-34.520;150.798;2023-08-01T03:51:03;101604.69;;;22.19;33.23
63395;BME280;49531;-34.520;150.798;2023-08-01T03:53:30;101604.13;;;22.17;33.15
63395;BME280;49531;-34.520;150.798;2023-08-01T03:55:57;101604.53;;;22.09;32.97
63395;BME280;49531;-34.520;150.798;2023-08-01T03:58:24;101608.09;;;22.09;33.34
63395;BME280;49531;-34.520;150.798;2023-08-01T04:00:51;101614.28;;;22.05;33.33
63395;BME280;49531;-34.520;150.798;2023-08-01T04:03:19;101613.59;;;22.14;32.81
63395;BME280;49531;-34.520;150.798;2023-08-01T04:05:47;101618.38;;;22.07;33.08
63395;BME280;49531;-34.520;150.798;2023-08-01T04:08:14;101618.38;;;22.07;32.86
63395;BME280;49531;-34.520;150.798;2023-08-01T04:10:41;101617.81;;;22.05;33.11
63395;BME280;49531;-34.520;150.798;2023-08-01T04:13:08;101625.47;;;22.08;33.19
63395;BME280;49531;-34.520;150.798;2023-08-01T04:15:36;101628.03;;;22.15;33.25
63395;BME280;49531;-34.520;150.798;2023-08-01T04:18:03;101629.44;;;22.17;32.85
63395;BME280;49531;-34.520;150.798;2023-08-01T04:20:30;101619.38;;;22.18;32.67
63395;BME280;49531;-34.520;150.798;2023-08-01T04:22:57;101631.66;;;22.20;32.49
63395;BME280;49531;-34.520;150.798;2023-08-01T04:25:24;101629.75;;;22.21;32.85
63395;BME280;49531;-34.520;150.798;2023-08-01T04:27:53;101631.81;;;22.14;33.29
63395;BME280;49531;-34.520;150.798;2023-08-01T04:30:20;101638.59;;;22.11;33.57
63395;BME280;49531;-34.520;150.798;2023-08-01T04:32:47;101641.31;;;22.11;33.37
63395;BME280;49531;-34.520;150.798;2023-08-01T04:35:14;101643.94;;;22.06;33.74
63395;BME280;49531;-34.520;150.798;2023-08-01T04:37:41;101647.25;;;22.08;34.18
63395;BME280;49531;-34.520;150.798;2023-08-01T04:40:09;101647.56;;;22.12;34.29
63395;BME280;49531;-34.520;150.798;2023-08-01T04:42:36;101646.50;;;22.13;34.24
63395;BME280;49531;-34.520;150.798;2023-08-01T04:45:03;101659.13;;;22.02;34.46
63395;BME280;49531;-34.520;150.798;2023-08-01T04:47:32;101648.41;;;22.12;33.61
63395;BME280;49531;-34.520;150.798;2023-08-01T04:49:59;101648.06;;;22.09;33.45
63395;BME280;49531;-34.520;150.798;2023-08-01T04:52:26;101659.28;;;22.12;33.11
63395;BME280;49531;-34.520;150.798;2023-08-01T04:54:54;101660.59;;;22.10;33.54
63395;BME280;49531;-34.520;150.798;2023-08-01T04:57:21;101661.09;;;22.07;32.99
63395;BME280;49531;-34.520;150.798;2023-08-01T04:59:48;101668.69;;;22.05;32.98
63395;BME280;49531;-34.520;150.798;2023-08-01T05:02:15;101670.09;;;22.07;33.09
63395;BME280;49531;-34.520;150.798;2023-08-01T05:04:42;101665.13;;;22.04;32.68
63395;BME280;49531;-34.520;150.798;2023-08-01T05:07:09;101674.22;;;22.10;32.94
63395;BME280;49531;-34.520;150.798;2023-08-01T05:09:36;101670.25;;;22.17;32.47
63395;BME280;49531;-34.520;150.798;2023-08-01T05:12:03;101674.22;;;22.10;32.85
63395;BME280;49531;-34.520;150.798;2023-08-01T05:14:31;101673.13;;;22.11;32.91
63395;BME280;49531;-34.520;150.798;2023-08-01T05:16:58;101677.41;;;22.07;32.76
63395;BME280;49531;-34.520;150.798;2023-08-01T05:19:25;101677.41;;;22.07;32.91
63395;BME280;49531;-34.520;150.798;2023-08-01T05:21:52;101678.75;;;22.04;33.10
63395;BME280;49531;-34.520;150.798;2023-08-01T05:24:19;101679.97;;;21.96;33.36
63395;BME280;49531;-34.520;150.798;2023-08-01T05:26:46;101679.38;;;21.94;33.28
63395;BME280;49531;-34.520;150.798;2023-08-01T05:29:13;101672.63;;;21.97;33.50
63395;BME280;49531;-34.520;150.798;2023-08-01T05:31:40;101670.81;;;22.03;33.52
63395;BME280;49531;-34.520;150.798;2023-08-01T05:34:08;101685.00;;;22.05;33.73
63395;BME280;49531;-34.520;150.798;2023-08-01T05:36:35;101678.38;;;22.01;33.83
63395;BME280;49531;-34.520;150.798;2023-08-01T05:39:03;101690.59;;;21.98;34.03
63395;BME280;49531;-34.520;150.798;2023-08-01T05:41:30;101687.78;;;21.93;33.80
63395;BME280;49531;-34.520;150.798;2023-08-01T05:43:59;101686.97;;;21.92;34.03
63395;BME280;49531;-34.520;150.798;2023-08-01T05:46:26;101690.84;;;21.96;33.88
63395;BME280;49531;-34.520;150.798;2023-08-01T05:48:53;101691.09;;;21.95;33.65
63395;BME280;49531;-34.520;150.798;2023-08-01T05:51:20;101704.53;;;22.02;33.74
63395;BME280;49531;-34.520;150.798;2023-08-01T05:53:47;101706.66;;;22.00;33.78
63395;BME280;49531;-34.520;150.798;2023-08-01T05:56:14;101699.94;;;22.02;33.72
63395;BME280;49531;-34.520;150.798;2023-08-01T05:58:42;101700.75;;;22.03;33.74
63395;BME280;49531;-34.520;150.798;2023-08-01T06:01:10;101705.38;;;22.02;33.65
63395;BME280;49531;-34.520;150.798;2023-08-01T06:03:38;101709.75;;;22.03;33.72
63395;BME280;49531;-34.520;150.798;2023-08-01T06:06:06;101712.47;;;22.03;33.96
63395;BME280;49531;-34.520;150.798;2023-08-01T06:08:33;101722.28;;;22.04;33.81
63395;BME280;49531;-34.520;150.798;2023-08-01T06:11:00;101718.97;;;22.02;33.92
63395;BME280;49531;-34.520;150.798;2023-08-01T06:13:27;101720.38;;;22.05;33.74
63395;BME280;49531;-34.520;150.798;2023-08-01T06:15:54;101720.38;;;22.05;33.85
63395;BME280;49531;-34.520;150.798;2023-08-01T06:18:22;101728.63;;;22.10;33.76
63395;BME280;49531;-34.520;150.798;2023-08-01T06:20:49;101728.88;;;22.08;33.78
63395;BME280;49531;-34.520;150.798;2023-08-01T06:23:16;101734.56;;;22.07;33.78
63395;BME280;49531;-34.520;150.798;2023-08-01T06:25:43;101727.47;;;22.06;33.98
63395;BME280;49531;-34.520;150.798;2023-08-01T06:28:10;101739.41;;;22.05;33.97
63395;BME280;49531;-34.520;150.798;2023-08-01T06:30:38;101732.41;;;22.09;33.93
63395;BME280;49531;-34.520;150.798;2023-08-01T06:33:05;101738.34;;;22.06;32.98
63395;BME280;49531;-34.520;150.798;2023-08-01T06:35:32;101743.38;;;21.97;33.01
63395;BME280;49531;-34.520;150.798;2023-08-01T06:37:59;101738.75;;;21.98;33.13
63395;BME280;49531;-34.520;150.798;2023-08-01T06:40:26;101746.09;;;21.97;33.71
63395;BME280;49531;-34.520;150.798;2023-08-01T06:42:53;101739.25;;;21.94;33.37
63395;BME280;49531;-34.520;150.798;2023-08-01T06:45:20;101745.53;;;22.12;33.45
63395;BME280;49531;-34.520;150.798;2023-08-01T06:47:48;101753.88;;;22.22;33.42
63395;BME280;49531;-34.520;150.798;2023-08-01T06:50:15;101755.88;;;22.26;33.57
63395;BME280;49531;-34.520;150.798;2023-08-01T06:52:42;101761.41;;;22.32;33.64
63395;BME280;49531;-34.520;150.798;2023-08-01T06:55:09;101767.91;;;22.31;33.67
63395;BME280;49531;-34.520;150.798;2023-08-01T06:57:36;101770.97;;;22.34;33.57
63395;BME280;49531;-34.520;150.798;2023-08-01T07:00:03;101776.41;;;22.34;33.51
63395;BME280;49531;-34.520;150.798;2023-08-01T07:02:31;101773.44;;;22.36;33.57
63395;BME280;49531;-34.520;150.798;2023-08-01T07:04:58;101783.25;;;22.37;33.63
63395;BME280;49531;-34.520;150.798;2023-08-01T07:07:25;101783.41;;;22.30;33.80
63395;BME280;49531;-34.520;150.798;2023-08-01T07:09:52;101786.22;;;22.35;33.88
63395;BME280;49531;-34.520;150.798;2023-08-01T07:12:19;101797.69;;;22.37;33.68
63395;BME280;49531;-34.520;150.798;2023-08-01T07:14:47;101797.69;;;22.37;33.55
63395;BME280;49531;-34.520;150.798;2023-08-01T07:17:14;101804.25;;;22.41;33.69
63395;BME280;49531;-34.520;150.798;2023-08-01T07:19:41;101807.22;;;22.40;33.71
63395;BME280;49531;-34.520;150.798;2023-08-01T07:22:08;101814.09;;;22.42;34.04
63395;BME280;49531;-34.520;150.798;2023-08-01T07:24:35;101811.38;;;22.42;33.56
63395;BME280;49531;-34.520;150.798;2023-08-01T07:27:02;101823.41;;;22.46;33.55
63395;BME280;49531;-34.520;150.798;2023-08-01T07:29:29;101827.69;;;22.42;33.28
63395;BME280;49531;-34.520;150.798;2023-08-01T07:31:56;101830.50;;;22.31;33.89
63395;BME280;49531;-34.520;150.798;2023-08-01T07:34:24;101837.59;;;22.32;33.91
63395;BME280;49531;-34.520;150.798;2023-08-01T07:36:51;101831.59;;;22.29;34.08
63395;BME280;49531;-34.520;150.798;2023-08-01T07:39:18;101838.94;;;22.29;34.04
63395;BME280;49531;-34.520;150.798;2023-08-01T07:41:45;101848.25;;;22.33;34.18
63395;BME280;49531;-34.520;150.798;2023-08-01T07:44:12;101852.03;;;22.32;34.14
63395;BME280;49531;-34.520;150.798;2023-08-01T07:46:39;101853.78;;;22.38;34.14
63395;BME280;49531;-34.520;150.798;2023-08-01T07:49:07;101863.34;;;22.41;34.22
63395;BME280;49531;-34.520;150.798;2023-08-01T07:51:34;101859.13;;;22.33;34.15
63395;BME280;49531;-34.520;150.798;2023-08-01T07:54:04;101879.38;;;22.37;34.33
63395;BME280;49531;-34.520;150.798;2023-08-01T07:56:31;101875.47;;;22.33;34.25
63395;BME280;49531;-34.520;150.798;2023-08-01T07:58:58;101871.09;;;22.32;34.42
63395;BME280;49531;-34.520;150.798;2023-08-01T08:01:25;101880.44;;;22.36;34.46
63395;BME280;49531;-34.520;150.798;2023-08-01T08:03:52;101889.66;;;22.35;34.57
63395;BME280;49531;-34.520;150.798;2023-08-01T08:06:19;101884.13;;;22.30;34.67
63395;BME280;49531;-34.520;150.798;2023-08-01T08:08:47;101884.63;;;22.27;34.80
63395;BME280;49531;-34.520;150.798;2023-08-01T08:11:14;101893.69;;;22.33;34.72
63395;BME280;49531;-34.520;150.798;2023-08-01T08:13:42;101895.59;;;22.32;34.71
63395;BME280;49531;-34.520;150.798;2023-08-01T08:16:10;101902.34;;;22.29;34.75
63395;BME280;49531;-34.520;150.798;2023-08-01T08:18:37;101895.50;;;22.27;34.84
63395;BME280;49531;-34.520;150.798;2023-08-01T08:21:04;101901.28;;;22.31;34.88
63395;BME280;49531;-34.520;150.798;2023-08-01T08:23:31;101898.47;;;22.25;35.01
63395;BME280;49531;-34.520;150.798;2023-08-01T08:25:58;101903.66;;;22.27;34.93
63395;BME280;49531;-34.520;150.798;2023-08-01T08:28:31;101917.84;;;22.29;34.98
63395;BME280;49531;-34.520;150.798;2023-08-01T08:30:59;101925.69;;;22.25;34.98
63395;BME280;49531;-34.520;150.798;2023-08-01T08:33:28;101921.91;;;22.26;35.31
63395;BME280;49531;-34.520;150.798;2023-08-01T08:35:55;101931.94;;;22.26;35.07
63395;BME280;49531;-34.520;150.798;2023-08-01T08:38:22;101930.31;;;22.25;35.42
63395;BME280;49531;-34.520;150.798;2023-08-01T08:41:06;101933.59;;;22.27;35.15
63395;BME280;49531;-34.520;150.798;2023-08-01T08:43:34;101945.06;;;22.29;34.99
63395;BME280;49531;-34.520;150.798;2023-08-01T08:46:03;101940.13;;;22.26;35.11
63395;BME280;49531;-34.520;150.798;2023-08-01T08:48:31;101946.38;;;22.26;35.19
63395;BME280;49531;-34.520;150.798;2023-08-01T08:51:01;101948.28;;;22.26;35.20
63395;BME280;49531;-34.520;150.798;2023-08-01T08:53:31;101946.97;;;22.28;35.19
63395;BME280;49531;-34.520;150.798;2023-08-01T08:56:00;101948.78;;;22.23;35.18
63395;BME280;49531;-34.520;150.798;2023-08-01T08:58:29;101953.13;;;22.24;35.19
63395;BME280;49531;-34.520;150.798;2023-08-01T09:01:00;101961.31;;;22.24;35.30
63395;BME280;49531;-34.520;150.798;2023-08-01T09:03:28;101958.47;;;22.19;35.52
63395;BME280;49531;-34.520;150.798;2023-08-01T09:06:04;101972.56;;;22.16;35.36
63395;BME280;49531;-34.520;150.798;2023-08-01T09:08:36;101978.59;;;22.18;35.47
63395;BME280;49531;-34.520;150.798;2023-08-01T09:11:04;101976.59;;;22.13;35.50
63395;BME280;49531;-34.520;150.798;2023-08-01T09:13:32;101981.22;;;22.13;35.52
63395;BME280;49531;-34.520;150.798;2023-08-01T09:16:01;101983.00;;;22.07;35.60
63395;BME280;49531;-34.520;150.798;2023-08-01T09:18:29;101992.22;;;22.06;35.49
63395;BME280;49531;-34.520;150.798;2023-08-01T09:20:57;101993.53;;;22.04;35.54
63395;BME280;49531;-34.520;150.798;2023-08-01T09:23:28;101993.78;;;22.02;35.25
63395;BME280;49531;-34.520;150.798;2023-08-01T09:25:56;102005.13;;;21.99;35.41
63395;BME280;49531;-34.520;150.798;2023-08-01T09:28:24;102011.03;;;21.96;35.38
63395;BME280;49531;-34.520;150.798;2023-08-01T09:30:55;102008.44;;;21.89;35.42
63395;BME280;49531;-34.520;150.798;2023-08-01T09:33:23;102025.59;;;21.90;35.57
63395;BME280;49531;-34.520;150.798;2023-08-01T09:35:51;102023.13;;;21.88;35.27
63395;BME280;49531;-34.520;150.798;2023-08-01T09:38:19;102026.06;;;21.87;35.46
63395;BME280;49531;-34.520;150.798;2023-08-01T09:40:48;102033.41;;;21.86;35.35
63395;BME280;49531;-34.520;150.798;2023-08-01T09:43:16;102038.84;;;21.86;35.36
63395;BME280;49531;-34.520;150.798;2023-08-01T09:45:50;102037.44;;;21.84;35.29
63395;BME280;49531;-34.520;150.798;2023-08-01T09:48:23;102058.34;;;21.83;35.29
63395;BME280;49531;-34.520;150.798;2023-08-01T09:50:51;102045.22;;;21.80;35.34
63395;BME280;49531;-34.520;150.798;2023-08-01T09:53:19;102055.50;;;21.78;35.40
63395;BME280;49531;-34.520;150.798;2023-08-01T09:55:46;102057.88;;;21.75;35.49
63395;BME280;49531;-34.520;150.798;2023-08-01T09:58:17;102054.91;;;21.76;35.53
63395;BME280;49531;-34.520;150.798;2023-08-01T10:00:48;102061.06;;;21.72;35.58
63395;BME280;49531;-34.520;150.798;2023-08-01T10:03:17;102068.88;;;21.68;35.67
63395;BME280;49531;-34.520;150.798;2023-08-01T10:05:45;102070.75;;;21.68;35.53
63395;BME280;49531;-34.520;150.798;2023-08-01T10:08:13;102078.31;;;21.66;35.71
63395;BME280;49531;-34.520;150.798;2023-08-01T10:10:42;102068.38;;;21.59;35.86
63395;BME280;49531;-34.520;150.798;2023-08-01T10:13:09;102073.59;;;21.61;35.88
63395;BME280;49531;-34.520;150.798;2023-08-01T10:15:40;102070.53;;;21.57;35.86
63395;BME280;49531;-34.520;150.798;2023-08-01T10:18:08;102079.53;;;21.58;35.67
63395;BME280;49531;-34.520;150.798;2023-08-01T10:20:38;102091.94;;;21.54;35.83
63395;BME280;49531;-34.520;150.798;2023-08-01T10:23:06;102093.00;;;21.53;35.87
63395;BME280;49531;-34.520;150.798;2023-08-01T10:25:34;102104.91;;;21.52;36.01
63395;BME280;49531;-34.520;150.798;2023-08-01T10:28:03;102099.94;;;21.49;36.06
63395;BME280;49531;-34.520;150.798;2023-08-01T10:30:30;102103.13;;;21.46;36.06
63395;BME280;49531;-34.520;150.798;2023-08-01T10:32:58;102111.53;;;21.44;36.12
63395;BME280;49531;-34.520;150.798;2023-08-01T10:35:34;102118.25;;;21.42;36.18
63395;BME280;49531;-34.520;150.798;2023-08-01T10:38:05;102117.41;;;21.41;36.18
63395;BME280;49531;-34.520;150.798;2023-08-01T10:40:34;102114.34;;;21.38;36.19
63395;BME280;49531;-34.520;150.798;2023-08-01T10:43:02;102129.59;;;21.39;35.97
63395;BME280;49531;-34.520;150.798;2023-08-01T10:45:30;102124.00;;;21.34;36.29
63395;BME280;49531;-34.520;150.798;2023-08-01T10:48:07;102131.56;;;21.32;36.59
63395;BME280;49531;-34.520;150.798;2023-08-01T10:50:35;102125.75;;;21.28;36.71
63395;BME280;49531;-34.520;150.798;2023-08-01T10:53:04;102125.75;;;21.28;36.75
63395;BME280;49531;-34.520;150.798;2023-08-01T10:55:43;102128.72;;;21.26;36.51
63395;BME280;49531;-34.520;150.798;2023-08-01T10:58:10;102135.19;;;21.25;36.44
63395;BME280;49531;-34.520;150.798;2023-08-01T11:00:38;102133.78;;;21.23;36.56
63395;BME280;49531;-34.520;150.798;2023-08-01T11:03:09;102148.88;;;21.19;36.53
63395;BME280;49531;-34.520;150.798;2023-08-01T11:05:36;102134.78;;;21.10;36.64
63395;BME280;49531;-34.520;150.798;2023-08-01T11:08:03;102147.69;;;21.15;36.63
63395;BME280;49531;-34.520;150.798;2023-08-01T11:10:33;102147.31;;;21.11;36.57
63395;BME280;49531;-34.520;150.798;2023-08-01T11:13:00;102147.75;;;21.08;36.62
63395;BME280;49531;-34.520;150.798;2023-08-01T11:15:27;102152.81;;;21.05;36.59
63395;BME280;49531;-34.520;150.798;2023-08-01T11:17:55;102162.84;;;21.04;36.52
63395;BME280;49531;-34.520;150.798;2023-08-01T11:20:24;102155.38;;;21.00;36.76
63395;BME280;49531;-34.520;150.798;2023-08-01T11:22:56;102158.34;;;20.98;36.71
63395;BME280;49531;-34.520;150.798;2023-08-01T11:25:35;102165.06;;;20.95;36.78
63395;BME280;49531;-34.520;150.798;2023-08-01T11:28:08;102172.97;;;20.97;36.63
63395;BME280;49531;-34.520;150.798;2023-08-01T11:30:35;102186.19;;;20.93;37.10
63395;BME280;49531;-34.520;150.798;2023-08-01T11:33:23;102183.69;;;20.92;36.82
63395;BME280;49531;-34.520;150.798;2023-08-01T11:35:52;102185.19;;;20.88;36.75
63395;BME280;49531;-34.520;150.798;2023-08-01T11:38:23;102187.91;;;20.88;36.80
63395;BME280;49531;-34.520;150.798;2023-08-01T11:40:52;102198.19;;;20.86;36.86
63395;BME280;49531;-34.520;150.798;2023-08-01T11:43:19;102193.19;;;20.83;36.84
63395;BME280;49531;-34.520;150.798;2023-08-01T11:45:53;102205.34;;;20.80;37.12
63395;BME280;49531;-34.520;150.798;2023-08-01T11:48:22;102199.56;;;20.77;37.18
63395;BME280;49531;-34.520;150.798;2023-08-01T11:50:57;102198.97;;;20.75;37.37
63395;BME280;49531;-34.520;150.798;2023-08-01T11:53:24;102203.16;;;20.71;37.07
63395;BME280;49531;-34.520;150.798;2023-08-01T11:55:52;102208.59;;;20.71;37.00
63395;BME280;49531;-34.520;150.798;2023-08-01T11:58:31;102210.72;;;20.69;37.13
63395;BME280;49531;-34.520;150.798;2023-08-01T12:01:12;102218.03;;;20.68;37.14
63395;BME280;49531;-34.520;150.798;2023-08-01T12:03:48;102213.03;;;20.65;37.29
63395;BME280;49531;-34.520;150.798;2023-08-01T12:06:17;102216.59;;;20.66;37.14
63395;BME280;49531;-34.520;150.798;2023-08-01T12:08:46;102223.53;;;20.61;37.39
63395;BME280;49531;-34.520;150.798;2023-08-01T12:11:23;102227.91;;;20.62;37.22
63395;BME280;49531;-34.520;150.798;2023-08-01T12:14:02;102229.19;;;20.60;37.15
63395;BME280;49531;-34.520;150.798;2023-08-01T12:16:31;102227.75;;;20.57;37.38
63395;BME280;49531;-34.520;150.798;2023-08-01T12:18:58;102228.34;;;20.59;37.26
63395;BME280;49531;-34.520;150.798;2023-08-01T12:21:25;102230.44;;;20.57;37.30
63395;BME280;49531;-34.520;150.798;2023-08-01T12:23:53;102242.97;;;20.58;37.24
63395;BME280;49531;-34.520;150.798;2023-08-01T12:26:20;102238.59;;;20.57;37.46